Time;durP1;ratioP1;P1;durP2;ratioP2;P2;SDS_P1;SDS_P2;PMS_P1;PMS_P2;Temp;Humidity;BMP_temperature;BMP_pressure;BME280_temperature;BME280_humidity;BME280_pressure;Samples;Min_cycle;Max_cycle;Signal;HPM_P1;HPM_P2
2024/01/07 00:01:32;;;;;;;1999.90;999.90;;;4.50;99.90;;;;;;5056104;28;20060;-77
2024/01/07 00:03:57;;;;;;;1999.90;999.90;;;4.50;99.90;;;;;;5056045;28;20031;-76
2024/01/07 00:06:23;;;;;;;1999.90;999.90;;;4.50;99.90;;;;;;5056483;28;20025;-76
2024/01/07 00:08:49;;;;;;;1999.90;999.90;;;4.50;99.90;;;;;;5056592;28;20028;-76
2024/01/07 00:11:15;;;;;;;1999.90;999.90;;;4.40;99.90;;;;;;5055905;28;20036;-77
2024/01/07 00:13:41;;;;;;;1999.90;999.90;;;4.40;99.90;;;;;;5056221;28;20064;-76
2024/01/07 00:16:06;;;;;;;1999.90;999.90;;;4.40;99.90;;;;;;5056007;28;20080;-77
2024/01/07 00:18:32;;;;;;;1999.90;999.90;;;4.40;99.90;;;;;;5056377;28;20040;-76
2024/01/07 00:20:57;;;;;;;1999.90;999.90;;;4.40;99.90;;;;;;5056125;28;20037;-76
2024/01/07 00:23:24;;;;;;;1999.90;999.90;;;4.30;99.90;;;;;;5055888;28;20040;-76
2024/01/07 00:25:49;;;;;;;1999.90;999.90;;;4.30;99.90;;;;;;5055965;28;20024;-77
2024/01/07 00:28:15;;;;;;;1999.90;999.90;;;4.20;99.90;;;;;;5066776;28;20067;-76
2024/01/07 00:30:41;;;;;;;1999.90;999.90;;;4.20;99.90;;;;;;5029536;28;20257;-77
2024/01/07 00:33:06;;;;;;;1999.90;999.90;;;4.20;99.90;;;;;;5052387;28;20033;-76
2024/01/07 00:35:32;;;;;;;1999.90;999.90;;;4.20;99.90;;;;;;5055841;28;20029;-76
2024/01/07 00:37:58;;;;;;;1999.90;999.90;;;4.20;99.90;;;;;;5055404;28;20035;-76
2024/01/07 00:40:24;;;;;;;1999.90;999.90;;;4.20;99.90;;;;;;5055358;28;20507;-76
2024/01/07 00:42:51;;;;;;;1999.90;999.90;;;4.20;99.90;;;;;;5055895;28;20483;-77
2024/01/07 00:45:17;;;;;;;1999.90;999.90;;;4.20;99.90;;;;;;5055773;28;20021;-76
2024/01/07 00:47:43;;;;;;;1999.90;999.90;;;4.20;99.90;;;;;;5054859;28;20029;-77
2024/01/07 00:50:08;;;;;;;1999.90;999.90;;;4.20;99.90;;;;;;5041552;28;20076;-76
2024/01/07 00:52:36;;;;;;;1999.90;999.90;;;4.20;99.90;;;;;;5025882;28;20059;-77
2024/01/07 00:55:06;;;;;;;1999.90;999.90;;;4.20;99.90;;;;;;5055787;28;20025;-76
2024/01/07 00:57:32;;;;;;;1999.90;999.90;;;4.10;99.90;;;;;;5054753;28;20032;-77
2024/01/07 00:59:59;;;;;;;1999.90;999.90;;;4.10;99.90;;;;;;5055235;28;20064;-77
2024/01/07 01:02:25;;;;;;;1999.90;999.90;;;4.00;99.90;;;;;;5055213;28;21912;-77
2024/01/07 01:04:50;;;;;;;1999.90;999.90;;;4.00;99.90;;;;;;5053926;28;20456;-77
2024/01/07 01:07:16;;;;;;;1999.90;999.90;;;4.00;99.90;;;;;;5054448;28;20028;-76
2024/01/07 01:09:42;;;;;;;1999.90;999.90;;;4.00;99.90;;;;;;5036829;28;20037;-76
2024/01/07 01:12:07;;;;;;;1999.90;999.90;;;3.90;99.90;;;;;;5054961;28;20104;-76
2024/01/07 01:14:33;;;;;;;1999.90;999.90;;;3.90;99.90;;;;;;5055369;28;20434;-77
2024/01/07 01:16:58;;;;;;;1999.90;999.90;;;3.90;99.90;;;;;;5054783;28;20060;-77
2024/01/07 01:19:25;;;;;;;1999.90;999.90;;;3.90;99.90;;;;;;5055043;28;20033;-76
2024/01/07 01:21:50;;;;;;;1999.90;999.90;;;3.90;99.90;;;;;;5055027;28;20067;-76
2024/01/07 01:24:16;;;;;;;1999.90;999.90;;;3.80;99.90;;;;;;5054581;28;20037;-76
2024/01/07 01:26:41;;;;;;;1999.90;999.90;;;3.90;99.90;;;;;;5054934;28;20379;-76
2024/01/07 01:29:07;;;;;;;1999.90;999.90;;;3.80;99.90;;;;;;5048841;28;20027;-76
2024/01/07 01:31:33;;;;;;;1999.90;999.90;;;3.90;99.90;;;;;;5053052;28;20483;-76
2024/01/07 01:33:58;;;;;;;1999.90;999.90;;;3.80;99.90;;;;;;5054654;28;20033;-77
2024/01/07 01:36:24;;;;;;;1999.90;999.90;;;3.90;99.90;;;;;;5063805;28;20079;-76
2024/01/07 01:38:50;;;;;;;1999.90;999.90;;;3.80;99.90;;;;;;5054780;28;20064;-77
2024/01/07 01:41:18;;;;;;;1999.90;999.90;;;3.80;99.90;;;;;;5054279;28;20040;-76
2024/01/07 01:43:44;;;;;;;1999.90;999.90;;;3.80;99.90;;;;;;5054328;28;20043;-77
2024/01/07 01:46:09;;;;;;;1999.90;999.90;;;3.80;99.90;;;;;;5054282;28;20391;-77
2024/01/07 01:48:39;;;;;;;1999.90;999.90;;;3.80;99.90;;;;;;5053481;28;20466;-76
2024/01/07 01:51:04;;;;;;;1999.90;999.90;;;3.80;99.90;;;;;;5043280;28;20021;-76
2024/01/07 01:53:31;;;;;;;1999.90;999.90;;;3.70;99.90;;;;;;5054501;28;20037;-77
2024/01/07 01:55:59;;;;;;;1999.90;999.90;;;3.70;99.90;;;;;;5054312;28;20017;-76
2024/01/07 01:58:25;;;;;;;1999.90;999.90;;;3.70;99.90;;;;;;5054610;28;20134;-76
2024/01/07 02:00:51;;;;;;;1999.90;999.90;;;3.70;99.90;;;;;;5054244;28;20067;-77
2024/01/07 02:03:18;;;;;;;1999.90;999.90;;;3.70;99.90;;;;;;5053961;28;20033;-77
2024/01/07 02:05:44;;;;;;;1999.90;999.90;;;3.70;99.90;;;;;;5036199;28;20113;-77
2024/01/07 02:08:10;;;;;;;1999.90;999.90;;;3.70;99.90;;;;;;5053989;28;20036;-76
2024/01/07 02:10:36;;;;;;;1999.90;999.90;;;3.70;99.90;;;;;;5053754;28;20048;-76
2024/01/07 02:13:03;;;;;;;1999.90;999.90;;;3.70;99.90;;;;;;5054115;28;20483;-76
2024/01/07 02:15:29;;;;;;;1999.90;999.90;;;3.80;99.90;;;;;;5053516;28;20077;-77
2024/01/07 02:17:55;;;;;;;1999.90;999.90;;;3.80;99.90;;;;;;5053999;28;20129;-77
2024/01/07 02:20:21;;;;;;;1999.90;999.90;;;3.80;99.90;;;;;;5053381;28;20156;-77
2024/01/07 02:22:46;;;;;;;1999.90;999.90;;;3.90;99.90;;;;;;5035699;28;20122;-76
2024/01/07 02:25:12;;;;;;;1999.90;999.90;;;3.90;99.90;;;;;;5053737;28;20029;-76
2024/01/07 02:27:38;;;;;;;1999.90;999.90;;;3.90;99.90;;;;;;5073016;28;20036;-76
2024/01/07 02:30:04;;;;;;;1999.90;999.90;;;3.90;99.90;;;;;;5048402;28;20025;-77
2024/01/07 02:32:34;;;;;;;1999.90;999.90;;;4.00;99.90;;;;;;5053551;28;20476;-76
2024/01/07 02:35:00;;;;;;;1999.90;999.90;;;4.00;99.90;;;;;;5053590;28;20032;-77
2024/01/07 02:37:25;;;;;;;1999.90;999.90;;;4.00;99.90;;;;;;5053118;28;20041;-76
2024/01/07 02:39:51;;;;;;;1999.90;999.90;;;4.00;99.90;;;;;;5053280;28;20033;-76
2024/01/07 02:42:16;;;;;;;1999.90;999.90;;;4.00;99.90;;;;;;5053218;28;20526;-77
2024/01/07 02:44:42;;;;;;;1999.90;999.90;;;4.00;99.90;;;;;;5053562;28;20550;-77
2024/01/07 02:47:08;;;;;;;1999.90;999.90;;;3.90;99.90;;;;;;5053480;28;20464;-76
2024/01/07 02:49:33;;;;;;;1999.90;999.90;;;3.90;99.90;;;;;;5044316;28;20064;-76
2024/01/07 02:51:59;;;;;;;1999.90;999.90;;;3.90;99.90;;;;;;5028475;28;20032;-76
2024/01/07 02:54:25;;;;;;;1999.90;999.90;;;3.90;99.90;;;;;;5053599;28;20112;-76
2024/01/07 02:56:50;;;;;;;1999.90;999.90;;;3.90;99.90;;;;;;5035379;28;20029;-76
2024/01/07 02:59:16;;;;;;;1999.90;999.90;;;3.90;99.90;;;;;;5053255;28;20040;-76
2024/01/07 03:01:42;;;;;;;1999.90;999.90;;;3.80;99.90;;;;;;5053014;28;20028;-76
2024/01/07 03:04:12;;;;;;;1999.90;999.90;;;3.80;99.90;;;;;;5052827;28;20029;-76
2024/01/07 03:06:38;;;;;;;1999.90;999.90;;;3.90;99.90;;;;;;5052445;28;20052;-76
2024/01/07 03:09:03;;;;;;;1999.90;999.90;;;3.90;99.90;;;;;;5051345;28;20060;-76
2024/01/07 03:11:29;;;;;;;1999.90;999.90;;;3.80;99.90;;;;;;5053006;28;20029;-76
2024/01/07 03:13:55;;;;;;;1999.90;999.90;;;3.90;99.90;;;;;;5052793;28;20116;-76
2024/01/07 03:16:26;;;;;;;1999.90;999.90;;;3.90;99.90;;;;;;5052773;28;20037;-77
2024/01/07 03:18:52;;;;;;;1999.90;999.90;;;3.90;99.90;;;;;;5052948;28;20043;-77
2024/01/07 03:21:22;;;;;;;1999.90;999.90;;;3.90;99.90;;;;;;5052740;28;20372;-76
2024/01/07 03:23:49;;;;;;;1999.90;999.90;;;3.90;99.90;;;;;;5052807;28;20024;-76
2024/01/07 03:26:15;;;;;;;1999.90;999.90;;;3.90;99.90;;;;;;5057099;28;20513;-76
2024/01/07 03:28:41;;;;;;;1999.90;999.90;;;3.80;99.90;;;;;;5062717;28;20090;-76
2024/01/07 03:31:15;;;;;;;1999.90;999.90;;;3.90;99.90;;;;;;5046330;28;20021;-76
2024/01/07 03:33:42;;;;;;;1999.90;999.90;;;3.90;99.90;;;;;;5051806;28;20033;-76
2024/01/07 03:36:09;;;;;;;1999.90;999.90;;;3.90;99.90;;;;;;5054982;28;20486;-76
2024/01/07 03:38:36;;;;;;;1999.90;999.90;;;3.90;99.90;;;;;;5052880;28;20483;-75
2024/01/07 03:41:02;;;;;;;1999.90;999.90;;;3.80;99.90;;;;;;5052359;28;20021;-76
2024/01/07 03:43:28;;;;;;;1999.90;999.90;;;3.80;99.90;;;;;;5052394;28;20580;-76
2024/01/07 03:45:53;;;;;;;1999.90;999.90;;;3.90;99.90;;;;;;5052546;28;20045;-76
2024/01/07 03:48:19;;;;;;;1999.90;999.90;;;3.80;99.90;;;;;;5052361;28;20021;-76
2024/01/07 03:50:45;;;;;;;1999.90;999.90;;;3.80;99.90;;;;;;5033507;28;20021;-77
2024/01/07 03:53:11;;;;;;;1999.90;999.90;;;3.80;99.90;;;;;;5051928;28;20442;-77
2024/01/07 03:55:36;;;;;;;1999.90;999.90;;;3.70;99.90;;;;;;5052302;28;20070;-76
2024/01/07 03:58:03;;;;;;;1999.90;999.90;;;3.70;99.90;;;;;;5052301;28;20033;-76
2024/01/07 04:00:28;;;;;;;1999.90;999.90;;;3.70;99.90;;;;;;5052669;28;20495;-76
2024/01/07 04:02:54;;;;;;;1999.90;999.90;;;3.70;99.90;;;;;;5051706;28;20039;-76
2024/01/07 04:05:19;;;;;;;1999.90;999.90;;;3.70;99.90;;;;;;5051902;28;20021;-77
2024/01/07 04:07:45;;;;;;;1999.90;999.90;;;3.70;99.90;;;;;;5052643;28;20037;-77
2024/01/07 04:10:11;;;;;;;1999.90;999.90;;;3.80;99.90;;;;;;5051855;28;20108;-76
2024/01/07 04:12:37;;;;;;;1999.90;999.90;;;3.70;99.90;;;;;;5052316;28;20037;-76
2024/01/07 04:15:03;;;;;;;1999.90;999.90;;;3.70;99.90;;;;;;5052280;28;20041;-76
2024/01/07 04:17:29;;;;;;;1999.90;999.90;;;3.70;99.90;;;;;;5034288;28;20047;-76
2024/01/07 04:19:55;;;;;;;1999.90;999.90;;;3.70;99.90;;;;;;5052307;28;20033;-76
2024/01/07 04:22:21;;;;;;;1999.90;999.90;;;3.70;99.90;;;;;;5052127;28;20025;-77
2024/01/07 04:24:46;;;;;;;1999.90;999.90;;;3.70;99.90;;;;;;5052016;28;20021;-76
2024/01/07 04:27:12;;;;;;;1999.90;999.90;;;3.70;99.90;;;;;;5061382;28;20476;-76
2024/01/07 04:29:38;;;;;;;1999.90;999.90;;;3.60;99.90;;;;;;5050808;28;20033;-76
2024/01/07 04:32:03;;;;;;;1999.90;999.90;;;3.60;99.90;;;;;;5054610;28;20033;-77
2024/01/07 04:34:29;;;;;;;1999.90;999.90;;;3.50;99.90;;;;;;5072316;28;20475;-77
2024/01/07 04:36:55;;;;;;;1999.90;999.90;;;3.50;99.90;;;;;;5064902;28;20041;-76
2024/01/07 04:39:20;;;;;;;1999.90;999.90;;;3.40;99.90;;;;;;5053761;28;20487;-76
2024/01/07 04:41:46;;;;;;;1999.90;999.90;;;3.40;99.90;;;;;;5055907;28;20032;-77
2024/01/07 04:44:12;;;;;;;1999.90;999.90;;;3.40;99.90;;;;;;5055397;28;20050;-76
2024/01/07 04:46:39;;;;;;;1999.90;999.90;;;3.40;99.90;;;;;;5058851;28;20021;-76
2024/01/07 04:49:05;;;;;;;1999.90;999.90;;;3.30;99.90;;;;;;5047642;28;20500;-76
2024/01/07 04:51:34;;;;;;;1999.90;999.90;;;3.30;99.90;;;;;;5037934;28;20041;-77
2024/01/07 04:54:00;;;;;;;1999.90;999.90;;;3.30;99.90;;;;;;5055406;28;20025;-76
2024/01/07 04:56:25;;;;;;;1999.90;999.90;;;3.30;99.90;;;;;;5055813;28;20035;-76
2024/01/07 04:58:51;;;;;;;1999.90;999.90;;;3.30;99.90;;;;;;5055380;28;20061;-77
2024/01/07 05:01:16;;;;;;;1999.90;999.90;;;3.20;99.90;;;;;;5055297;28;20510;-76
2024/01/07 05:03:42;;;;;;;1999.90;999.90;;;3.20;99.90;;;;;;5055293;28;20037;-76
2024/01/07 05:06:11;;;;;;;1999.90;999.90;;;3.20;99.90;;;;;;5054964;28;20096;-76
2024/01/07 05:08:37;;;;;;;1999.90;999.90;;;3.20;99.90;;;;;;5053886;28;20380;-76
2024/01/07 05:11:06;;;;;;;1999.90;999.90;;;3.20;99.90;;;;;;5054983;28;20032;-76
2024/01/07 05:13:32;;;;;;;1999.90;999.90;;;3.30;99.90;;;;;;5055022;28;20033;-76
2024/01/07 05:15:57;;;;;;;1999.90;999.90;;;3.30;99.90;;;;;;5054972;28;20099;-76
2024/01/07 05:18:24;;;;;;;1999.90;999.90;;;3.30;99.90;;;;;;5055190;28;20041;-76
2024/01/07 05:20:50;;;;;;;1999.90;999.90;;;3.20;99.90;;;;;;5055038;28;20055;-75
2024/01/07 05:23:16;;;;;;;1999.90;999.90;;;3.20;99.90;;;;;;5054928;28;20033;-75
2024/01/07 05:25:45;;;;;;;1999.90;999.90;;;3.30;99.90;;;;;;5055063;28;20078;-75
2024/01/07 05:28:11;;;;;;;1999.90;999.90;;;3.20;99.90;;;;;;5066674;28;20074;-77
2024/01/07 05:30:38;;;;;;;1999.90;999.90;;;3.20;99.90;;;;;;5046233;28;20056;-76
2024/01/07 05:33:04;;;;;;;1999.90;999.90;;;3.20;99.90;;;;;;5031807;28;20060;-75
2024/01/07 05:35:30;;;;;;;1999.90;999.90;;;3.10;99.90;;;;;;5034723;28;20057;-76
2024/01/07 05:37:56;;;;;;;1999.90;999.90;;;3.10;99.90;;;;;;5049647;28;20039;-75
2024/01/07 05:40:22;;;;;;;1999.90;999.90;;;3.10;99.90;;;;;;5054596;28;20032;-76
2024/01/07 05:42:47;;;;;;;1999.90;999.90;;;3.10;99.90;;;;;;5031963;28;20036;-76
2024/01/07 05:45:13;;;;;;;1999.90;999.90;;;3.00;99.90;;;;;;5047175;28;20025;-76
2024/01/07 05:47:40;;;;;;;1999.90;999.90;;;3.00;99.90;;;;;;5054546;28;20052;-75
2024/01/07 05:50:06;;;;;;;1999.90;999.90;;;3.10;99.90;;;;;;5039731;28;20381;-75
2024/01/07 05:52:32;;;;;;;1999.90;999.90;;;3.10;99.90;;;;;;5047329;28;20029;-75
2024/01/07 05:54:58;;;;;;;1999.90;999.90;;;3.10;99.90;;;;;;5037231;28;20096;-75
2024/01/07 05:57:24;;;;;;;1999.90;999.90;;;3.10;99.90;;;;;;5040642;28;20025;-75
2024/01/07 05:59:50;;;;;;;1999.90;999.90;;;3.10;99.90;;;;;;5054338;28;20162;-75
2024/01/07 06:02:17;;;;;;;1999.90;999.90;;;3.00;99.90;;;;;;5046025;28;20075;-75
2024/01/07 06:04:43;;;;;;;1999.90;999.90;;;3.00;99.90;;;;;;5054109;28;20068;-75
2024/01/07 06:07:08;;;;;;;1999.90;999.90;;;3.00;99.90;;;;;;5053953;28;20074;-76
2024/01/07 06:09:34;;;;;;;1999.90;999.90;;;2.90;99.90;;;;;;5053781;28;20477;-75
2024/01/07 06:12:01;;;;;;;1999.90;999.90;;;2.90;99.90;;;;;;5036115;28;20108;-75
2024/01/07 06:14:26;;;;;;;1999.90;999.90;;;2.90;99.90;;;;;;5053936;28;20035;-75
2024/01/07 06:16:52;;;;;;;1999.90;999.90;;;2.90;99.90;;;;;;5053936;28;20049;-75
2024/01/07 06:19:18;;;;;;;1999.90;999.90;;;2.80;99.90;;;;;;5053781;28;20487;-75
2024/01/07 06:21:44;;;;;;;1999.90;999.90;;;2.80;99.90;;;;;;5054091;28;20111;-76
2024/01/07 06:24:10;;;;;;;1999.90;999.90;;;2.80;99.90;;;;;;5053698;28;20100;-76
2024/01/07 06:26:36;;;;;;;1999.90;999.90;;;2.70;99.90;;;;;;5053614;28;20025;-75
2024/01/07 06:29:01;;;;;;;1999.90;999.90;;;2.70;99.90;;;;;;5058621;28;20032;-75
2024/01/07 06:31:27;;;;;;;1999.90;999.90;;;2.70;99.90;;;;;;5045065;28;20025;-76
2024/01/07 06:33:55;;;;;;;1999.90;999.90;;;2.70;99.90;;;;;;5053822;28;20033;-76
2024/01/07 06:36:21;;;;;;;1999.90;999.90;;;2.70;99.90;;;;;;5053382;28;20455;-76
2024/01/07 06:38:48;;;;;;;1999.90;999.90;;;2.70;99.90;;;;;;5053553;28;20103;-76
2024/01/07 06:41:14;;;;;;;1999.90;999.90;;;2.70;99.90;;;;;;5053373;28;20499;-76
2024/01/07 06:43:40;;;;;;;1999.90;999.90;;;2.70;99.90;;;;;;5053274;28;20025;-75
2024/01/07 06:46:05;;;;;;;1999.90;999.90;;;2.70;99.90;;;;;;5053627;28;20025;-75
2024/01/07 06:48:31;;;;;;;1999.90;999.90;;;2.70;99.90;;;;;;5052892;28;20480;-76
2024/01/07 06:50:57;;;;;;;1999.90;999.90;;;2.60;99.90;;;;;;5033421;28;20025;-76
2024/01/07 06:53:23;;;;;;;1999.90;999.90;;;2.60;99.90;;;;;;5044264;28;20028;-76
2024/01/07 06:55:49;;;;;;;1999.90;999.90;;;2.50;99.90;;;;;;5053232;28;20373;-76
2024/01/07 06:58:14;;;;;;;1999.90;999.90;;;2.50;99.90;;;;;;5053215;28;20108;-75
2024/01/07 07:00:40;;;;;;;1999.90;999.90;;;2.60;99.90;;;;;;5049486;28;20107;-75
2024/01/07 07:03:06;;;;;;;1999.90;999.90;;;2.50;99.90;;;;;;5048655;28;20438;-76
2024/01/07 07:05:32;;;;;;;1999.90;999.90;;;2.60;99.90;;;;;;5052845;28;20487;-75
2024/01/07 07:07:58;;;;;;;1999.90;999.90;;;2.60;99.90;;;;;;5052434;28;20049;-75
2024/01/07 07:10:24;;;;;;;1999.90;999.90;;;2.50;99.90;;;;;;5052806;28;20032;-75
2024/01/07 07:12:52;;;;;;;1999.90;999.90;;;2.50;99.90;;;;;;5053105;28;20017;-76
2024/01/07 07:15:18;;;;;;;1999.90;999.90;;;2.50;99.90;;;;;;5052841;28;20063;-76
2024/01/07 07:17:44;;;;;;;1999.90;999.90;;;2.50;99.90;;;;;;5053339;28;20037;-76
2024/01/07 07:20:10;;;;;;;1999.90;999.90;;;2.50;99.90;;;;;;5052812;28;20028;-75
2024/01/07 07:22:36;;;;;;;1999.90;999.90;;;2.50;99.90;;;;;;5052752;28;20546;-75
2024/01/07 07:25:02;;;;;;;1999.90;999.90;;;2.50;99.90;;;;;;5053038;28;20091;-75
2024/01/07 07:27:28;;;;;;;1999.90;999.90;;;2.50;99.90;;;;;;5053821;28;20392;-76
2024/01/07 07:29:53;;;;;;;1999.90;999.90;;;2.50;99.90;;;;;;5049316;28;20033;-76
2024/01/07 07:32:19;;;;;;;1999.90;999.90;;;2.50;99.90;;;;;;5047733;28;20093;-76
2024/01/07 07:34:45;;;;;;;1999.90;999.90;;;2.40;99.90;;;;;;5072485;28;20516;-76
2024/01/07 07:37:11;;;;;;;1999.90;999.90;;;2.40;99.90;;;;;;5063507;28;20559;-76
2024/01/07 07:39:36;;;;;;;1999.90;999.90;;;2.40;99.90;;;;;;5052304;28;20029;-76
2024/01/07 07:42:02;;;;;;;1999.90;999.90;;;2.40;99.90;;;;;;5052484;28;20381;-76
2024/01/07 07:44:28;;;;;;;1999.90;999.90;;;2.50;99.90;;;;;;5052506;28;20029;-76
2024/01/07 07:46:53;;;;;;;1999.90;999.90;;;2.50;99.90;;;;;;5052652;28;20476;-76
2024/01/07 07:49:19;;;;;;;1999.90;999.90;;;2.50;99.90;;;;;;5045438;28;20018;-76
2024/01/07 07:51:44;;;;;;;1999.90;999.90;;;2.50;99.90;;;;;;5032656;28;20424;-76
2024/01/07 07:54:10;;;;;;;1999.90;999.90;;;2.50;99.90;;;;;;5046673;28;20029;-76
2024/01/07 07:56:36;;;;;;;1999.90;999.90;;;2.60;99.90;;;;;;5052528;28;20117;-76
2024/01/07 07:59:04;;;;;;;1999.90;999.90;;;2.50;99.90;;;;;;5052484;28;20048;-76
2024/01/07 08:01:30;;;;;;;1999.90;999.90;;;2.50;99.90;;;;;;5052272;28;20384;-76
2024/01/07 08:03:55;;;;;;;1999.90;999.90;;;2.50;99.90;;;;;;5052314;28;20039;-76
2024/01/07 08:06:21;;;;;;;1999.90;999.90;;;2.50;99.90;;;;;;5052115;28;20106;-76
2024/01/07 08:08:47;;;;;;;1999.90;999.90;;;2.50;99.90;;;;;;5051591;28;20025;-76
2024/01/07 08:11:13;;;;;;;1999.90;999.90;;;2.60;99.90;;;;;;5051948;28;20037;-76
2024/01/07 08:13:38;;;;;;;1999.90;999.90;;;2.60;99.90;;;;;;5053235;28;20075;-76
2024/01/07 08:16:05;;;;;;;1999.90;999.90;;;2.60;99.90;;;;;;5056171;28;20063;-76
2024/01/07 08:18:31;;;;;;;1999.90;999.90;;;2.60;99.90;;;;;;5056337;28;20504;-76
2024/01/07 08:20:57;;;;;;;1999.90;999.90;;;2.60;99.90;;;;;;5056281;28;20487;-76
2024/01/07 08:23:24;;;;;;;1999.90;999.90;;;2.60;99.90;;;;;;5056023;28;20025;-76
2024/01/07 08:25:51;;;;;;;1999.90;999.90;;;2.70;99.90;;;;;;5056106;28;20021;-76
2024/01/07 08:28:17;;;;;;;1999.90;999.90;;;2.70;99.90;;;;;;5056461;28;20024;-76
2024/01/07 08:30:44;;;;;;;1999.90;999.90;;;2.70;99.90;;;;;;5047880;28;20074;-76
2024/01/07 08:33:10;;;;;;;1999.90;999.90;;;2.60;99.90;;;;;;5052773;28;20024;-76
2024/01/07 08:35:35;;;;;;;1999.90;999.90;;;2.60;99.90;;;;;;5055660;28;20037;-76
2024/01/07 08:38:01;;;;;;;1999.90;999.90;;;2.60;99.90;;;;;;5055618;28;20116;-76
2024/01/07 08:40:27;;;;;;;1999.90;999.90;;;2.70;99.90;;;;;;5055537;28;20029;-76
2024/01/07 08:42:53;;;;;;;1999.90;999.90;;;2.70;99.90;;;;;;5056017;28;20468;-76
2024/01/07 08:45:18;;;;;;;1999.90;999.90;;;2.70;99.90;;;;;;5055593;28;20033;-76
2024/01/07 08:47:44;;;;;;;1999.90;999.90;;;2.70;99.90;;;;;;5055776;28;20574;-76
2024/01/07 08:50:10;;;;;;;1999.90;999.90;;;2.70;99.90;;;;;;5007342;28;20021;-76
2024/01/07 08:52:36;;;;;;;1999.90;999.90;;;2.80;99.90;;;;;;5035621;28;20083;-76
2024/01/07 08:55:05;;;;;;;1999.90;999.90;;;2.80;99.90;;;;;;5053337;28;20460;-76
2024/01/07 08:57:31;;;;;;;1999.90;999.90;;;2.80;99.90;;;;;;5055534;28;20466;-76
2024/01/07 08:59:56;;;;;;;1999.90;999.90;;;2.90;99.90;;;;;;5055375;28;20104;-76
2024/01/07 09:02:22;;;;;;;1999.90;999.90;;;3.00;99.90;;;;;;5047209;28;20113;-76
2024/01/07 09:04:48;;;;;;;1999.90;999.90;;;3.20;99.90;;;;;;5054923;28;20032;-76
2024/01/07 09:07:16;;;;;;;1999.90;999.90;;;3.40;99.90;;;;;;5055163;28;20476;-76
2024/01/07 09:09:42;;;;;;;1999.90;999.90;;;3.40;99.90;;;;;;5055178;28;20027;-76
2024/01/07 09:12:07;;;;;;;1999.90;999.90;;;3.50;99.90;;;;;;5037357;28;20029;-76
2024/01/07 09:14:33;;;;;;;1999.90;999.90;;;3.60;99.90;;;;;;5055339;28;20372;-76
2024/01/07 09:16:59;;;;;;;1999.90;999.90;;;3.70;99.90;;;;;;5054900;28;20211;-77
2024/01/07 09:19:24;;;;;;;1999.90;999.90;;;3.90;99.90;;;;;;5054633;28;20033;-76
2024/01/07 09:21:50;;;;;;;1999.90;999.90;;;4.00;99.90;;;;;;5054975;28;20399;-76
2024/01/07 09:24:16;;;;;;;1999.90;999.90;;;4.10;99.90;;;;;;5054654;28;20039;-76
2024/01/07 09:26:41;;;;;;;1999.90;999.90;;;4.20;99.90;;;;;;5053811;28;20017;-77
2024/01/07 09:29:07;;;;;;;1999.90;999.90;;;4.20;99.90;;;;;;5034929;28;20025;-77
2024/01/07 09:31:33;;;;;;;1999.90;999.90;;;4.20;99.90;;;;;;5047085;28;20025;-77
2024/01/07 09:33:58;;;;;;;1999.90;999.90;;;4.30;99.90;;;;;;5043504;28;20032;-77
2024/01/07 09:36:24;;;;;;;1999.90;999.90;;;4.30;99.90;;;;;;5072138;28;20029;-76
2024/01/07 09:38:49;;;;;;;1999.90;999.90;;;4.40;99.90;;;;;;5054742;28;20024;-77
2024/01/07 09:41:15;;;;;;;1999.90;999.90;;;4.50;99.90;;;;;;5054603;28;20029;-76
2024/01/07 09:43:41;;;;;;;1999.90;999.90;;;4.50;99.90;;;;;;5054689;28;20021;-77
2024/01/07 09:46:06;;;;;;;1999.90;999.90;;;4.60;99.90;;;;;;5054576;28;20471;-77
2024/01/07 09:48:32;;;;;;;1999.90;999.90;;;4.60;99.90;;;;;;5054175;28;20021;-76
2024/01/07 09:50:58;;;;;;;1999.90;999.90;;;4.80;99.90;;;;;;5036036;28;20030;-76
2024/01/07 09:53:27;;;;;;;1999.90;999.90;;;4.70;99.90;;;;;;5046540;28;20026;-77
2024/01/07 09:56:13;;;;;;;1999.90;999.90;;;4.80;99.90;;;;;;5054670;28;20078;-77
2024/01/07 09:58:42;;;;;;;1999.90;999.90;;;5.00;99.90;;;;;;5054558;28;20028;-76
2024/01/07 10:01:08;;;;;;;1999.90;999.90;;;4.90;99.90;;;;;;5054419;28;20029;-76
2024/01/07 10:03:33;;;;;;;1999.90;999.90;;;5.00;99.90;;;;;;5054142;28;20017;-76
2024/01/07 10:05:59;;;;;;;1999.90;999.90;;;5.00;99.90;;;;;;5053290;28;20365;-77
2024/01/07 10:08:25;;;;;;;1999.90;999.90;;;5.10;99.90;;;;;;5054423;28;20067;-76
2024/01/07 10:10:50;;;;;;;1999.90;999.90;;;5.20;99.90;;;;;;5053757;28;20078;-77
2024/01/07 10:13:16;;;;;;;1999.90;999.90;;;5.20;99.90;;;;;;5036368;28;20029;-77
2024/01/07 10:15:42;;;;;;;1999.90;999.90;;;5.20;99.90;;;;;;5053750;28;20132;-76
2024/01/07 10:18:07;;;;;;;1999.90;999.90;;;5.10;99.90;;;;;;5053914;28;20518;-77
2024/01/07 10:20:34;;;;;;;1999.90;999.90;;;5.10;99.90;;;;;;5054305;28;20104;-77
2024/01/07 10:23:03;;;;;;;1999.90;999.90;;;5.10;99.90;;;;;;5053193;28;20028;-76
2024/01/07 10:25:31;;;;;;;1999.90;999.90;;;5.20;99.90;;;;;;5053724;28;20025;-76
2024/01/07 10:28:01;;;;;;;1999.90;999.90;;;5.40;99.90;;;;;;5053824;28;20048;-77
2024/01/07 10:30:27;;;;;;;1999.90;999.90;;;5.40;99.90;;;;;;5041752;28;20037;-76
2024/01/07 10:32:58;;;;;;;1999.90;999.90;;;5.30;99.90;;;;;;5052926;28;20068;-76
2024/01/07 10:35:33;;;;;;;1999.90;999.90;;;5.30;99.90;;;;;;5053672;28;20025;-77
2024/01/07 10:37:59;;;;;;;1999.90;999.90;;;5.40;99.90;;;;;;5052929;28;20507;-76
2024/01/07 10:40:27;;;;;;;1999.90;999.90;;;5.70;99.90;;;;;;5052919;28;20109;-77
2024/01/07 10:42:54;;;;;;;1999.90;999.90;;;5.80;99.90;;;;;;5053472;28;20399;-76
2024/01/07 10:45:20;;;;;;;1999.90;999.90;;;6.00;99.90;;;;;;5035601;28;20441;-76
2024/01/07 10:47:50;;;;;;;1999.90;999.90;;;6.30;99.90;;;;;;5053056;28;20104;-76
2024/01/07 10:50:17;;;;;;;1999.90;999.90;;;6.80;99.90;;;;;;5053107;28;20033;-76
2024/01/07 10:52:48;;;;;;;1999.90;999.90;;;6.70;99.90;;;;;;5053390;28;20476;-77
2024/01/07 10:55:17;;;;;;;1999.90;999.90;;;6.70;99.90;;;;;;5053335;28;20013;-76
2024/01/07 10:57:45;;;;;;;1999.90;999.90;;;7.00;99.90;;;;;;5053503;28;20070;-77
2024/01/07 11:00:18;;;;;;;1999.90;999.90;;;7.40;99.90;;;;;;5052865;28;20028;-77
2024/01/07 11:03:09;;;;;;;1999.90;999.90;;;7.70;99.90;;;;;;5053004;28;20029;-77
2024/01/07 11:05:47;;;;;;;1999.90;999.90;;;7.70;99.90;;;;;;5063521;28;20028;-76
2024/01/07 11:08:37;;;;;;;1999.90;999.90;;;7.50;99.90;;;;;;5053047;28;20610;-77
2024/01/07 11:11:13;;;;;;;1999.90;999.90;;;7.20;99.90;;;;;;5052748;28;20503;-76
2024/01/07 11:13:39;;;;;;;1999.90;999.90;;;7.00;99.90;;;;;;5052806;28;20029;-77
2024/01/07 11:16:11;;;;;;;1999.90;999.90;;;7.20;99.90;;;;;;5052914;28;20124;-76
2024/01/07 11:18:46;;;;;;;1999.90;999.90;;;7.30;99.90;;;;;;5053233;28;20396;-77
2024/01/07 11:21:21;;;;;;;1999.90;999.90;;;7.30;99.90;;;;;;5052907;28;20037;-77
2024/01/07 11:23:47;;;;;;;1999.90;999.90;;;7.20;99.90;;;;;;5052523;28;20017;-76
2024/01/07 11:26:12;;;;;;;1999.90;999.90;;;7.20;99.90;;;;;;5052641;28;20029;-77
2024/01/07 11:28:45;;;;;;;1999.90;999.90;;;7.30;99.90;;;;;;5049550;28;20022;-77
2024/01/07 11:31:11;;;;;;;1999.90;999.90;;;7.30;99.90;;;;;;5043928;28;20499;-77
2024/01/07 11:33:37;;;;;;;1999.90;999.90;;;7.40;99.90;;;;;;5052717;28;20063;-77
2024/01/07 11:36:04;;;;;;;1999.90;999.90;;;7.50;99.90;;;;;;5069671;28;20078;-77
2024/01/07 11:38:30;;;;;;;1999.90;999.90;;;7.50;99.90;;;;;;5052573;28;20446;-77
2024/01/07 11:40:57;;;;;;;1999.90;999.90;;;7.10;99.90;;;;;;5052324;28;20480;-77
2024/01/07 11:43:22;;;;;;;1999.90;999.90;;;7.00;99.90;;;;;;5052420;28;20040;-77
2024/01/07 11:45:51;;;;;;;1999.90;999.90;;;7.10;99.90;;;;;;5052740;28;20103;-77
2024/01/07 11:48:18;;;;;;;1999.90;999.90;;;7.30;99.90;;;;;;5051775;28;20029;-77
2024/01/07 11:50:44;;;;;;;1999.90;999.90;;;7.50;99.90;;;;;;5047697;28;20040;-77
2024/01/07 11:53:11;;;;;;;1999.90;999.90;;;7.60;99.90;;;;;;5052606;28;20021;-76
2024/01/07 11:55:37;;;;;;;1999.90;999.90;;;7.70;99.90;;;;;;5052521;28;20033;-77
2024/01/07 11:58:03;;;;;;;1999.90;999.90;;;7.90;99.90;;;;;;5052400;28;20032;-77
2024/01/07 12:00:33;;;;;;;1999.90;999.90;;;8.00;99.90;;;;;;5052305;28;20104;-77
2024/01/07 12:03:00;;;;;;;1999.90;999.90;;;7.90;99.90;;;;;;5051583;28;20029;-77
2024/01/07 12:05:26;;;;;;;1999.90;999.90;;;7.80;99.90;;;;;;5051988;28;20029;-77